Time;durP1;ratioP1;P1;durP2;ratioP2;P2;SDS_P1;SDS_P2;PMS_P1;PMS_P2;Temp;Humidity;BMP_temperature;BMP_pressure;BME280_temperature;BME280_humidity;BME280_pressure;Samples;Min_cycle;Max_cycle;Signal;HPM_P1;HPM_P2
2021/04/01 00:00:32;;;;;;;4.30;3.53;;;8.00;99.90;;;;;;5016989;28;20495;-69
2021/04/01 00:03:01;;;;;;;4.13;3.77;;;8.00;99.90;;;;;;5034410;28;20504;-69
2021/04/01 00:05:30;;;;;;;4.33;3.93;;;7.90;99.90;;;;;;5016988;28;20448;-72
2021/04/01 00:07:57;;;;;;;4.50;3.77;;;7.90;99.90;;;;;;5034517;28;20416;-69
2021/04/01 00:10:29;;;;;;;4.60;4.00;;;7.90;99.90;;;;;;5018904;28;20440;-72
2021/04/01 00:12:57;;;;;;;4.73;3.50;;;7.80;99.90;;;;;;5039073;28;20915;-69
2021/04/01 00:15:25;;;;;;;4.50;3.87;;;7.80;99.90;;;;;;5034809;28;21014;-72
2021/04/01 00:17:53;;;;;;;8.93;4.13;;;7.70;99.90;;;;;;5016723;28;20489;-70
2021/04/01 00:20:22;;;;;;;5.40;3.80;;;7.70;99.90;;;;;;5035032;28;20438;-69
2021/04/01 00:22:49;;;;;;;4.80;4.07;;;7.60;99.90;;;;;;5035410;28;20408;-69
2021/04/01 00:25:18;;;;;;;5.63;3.90;;;7.70;99.90;;;;;;5035994;28;20436;-69
2021/04/01 00:27:47;;;;;;;4.23;3.80;;;7.70;99.90;;;;;;5017580;28;20493;-69
2021/04/01 00:30:15;;;;;;;4.40;4.00;;;7.70;99.90;;;;;;5016600;28;20515;-69
2021/04/01 00:32:44;;;;;;;7.97;4.10;;;7.60;99.90;;;;;;5016607;28;20432;-70
2021/04/01 00:35:12;;;;;;;4.17;3.40;;;7.60;99.90;;;;;;4999791;28;20472;-69
2021/04/01 00:37:41;;;;;;;5.97;3.63;;;7.50;99.90;;;;;;5034057;28;20437;-69
2021/04/01 00:40:12;;;;;;;6.63;3.93;;;7.40;99.90;;;;;;5034048;28;20449;-69
2021/04/01 00:42:39;;;;;;;6.80;4.00;;;7.40;99.90;;;;;;5016457;28;20428;-69
2021/04/01 00:45:09;;;;;;;4.37;3.43;;;7.40;99.90;;;;;;5033642;28;20432;-69
2021/04/01 00:47:38;;;;;;;5.60;4.20;;;7.40;99.90;;;;;;5036993;28;20436;-70
2021/04/01 00:50:09;;;;;;;4.97;4.33;;;7.40;99.90;;;;;;5019966;28;20444;-72
2021/04/01 00:52:38;;;;;;;5.57;4.17;;;7.40;99.90;;;;;;5037057;28;20564;-72
2021/04/01 00:55:08;;;;;;;5.10;4.33;;;7.40;99.90;;;;;;5037398;28;20525;-69
2021/04/01 00:57:38;;;;;;;7.93;4.00;;;7.40;99.90;;;;;;5037745;28;20967;-69
2021/04/01 01:00:08;;;;;;;5.67;3.47;;;7.40;99.90;;;;;;5037304;28;20444;-68
2021/04/01 01:02:36;;;;;;;5.10;4.40;;;7.30;99.90;;;;;;5019572;28;20439;-72
2021/04/01 01:05:04;;;;;;;4.00;3.60;;;7.30;99.90;;;;;;5037692;28;20448;-72
2021/04/01 01:07:32;;;;;;;6.37;4.13;;;7.30;99.90;;;;;;5038259;28;20928;-70
2021/04/01 01:10:00;;;;;;;7.00;4.60;;;7.20;99.90;;;;;;5037182;28;21075;-69
2021/04/01 01:12:31;;;;;;;5.30;3.80;;;7.20;99.90;;;;;;5020260;28;20451;-69
2021/04/01 01:15:00;;;;;;;4.67;3.77;;;7.10;99.90;;;;;;5037296;28;20459;-70
2021/04/01 01:17:27;;;;;;;7.47;4.70;;;7.10;99.90;;;;;;5019655;28;20470;-72
2021/04/01 01:19:56;;;;;;;4.00;3.60;;;7.00;99.90;;;;;;5019655;28;20435;-69
2021/04/01 01:22:24;;;;;;;6.60;4.10;;;7.00;99.90;;;;;;5037231;28;20424;-69
2021/04/01 01:24:54;;;;;;;6.90;4.50;;;6.90;99.90;;;;;;5019065;28;20936;-69
2021/04/01 01:27:22;;;;;;;4.40;4.00;;;6.90;99.90;;;;;;5037078;28;20775;-69
2021/04/01 01:29:49;;;;;;;5.50;4.53;;;6.90;99.90;;;;;;5037031;28;20427;-69
2021/04/01 01:32:17;;;;;;;8.40;5.00;;;6.90;99.90;;;;;;5019345;28;20446;-72
2021/04/01 01:34:46;;;;;;;7.30;4.77;;;6.80;99.90;;;;;;5036801;28;20787;-69
2021/04/01 01:37:15;;;;;;;6.20;4.47;;;6.80;99.90;;;;;;5019195;28;20452;-69
2021/04/01 01:39:42;;;;;;;4.37;3.97;;;6.80;99.90;;;;;;5019287;28;20522;-70
2021/04/01 01:42:11;;;;;;;4.80;4.23;;;6.80;99.90;;;;;;5036753;28;20834;-69
2021/04/01 01:44:40;;;;;;;4.10;3.73;;;6.70;99.90;;;;;;5018821;28;20435;-70
2021/04/01 01:47:08;;;;;;;6.17;4.03;;;6.80;99.90;;;;;;5003046;28;20441;-68
2021/04/01 01:49:40;;;;;;;6.37;3.73;;;6.70;99.90;;;;;;5018949;28;20436;-67
2021/04/01 01:52:08;;;;;;;5.17;4.30;;;6.70;99.90;;;;;;5036241;28;20479;-69
2021/04/01 01:54:35;;;;;;;8.77;4.20;;;6.70;99.90;;;;;;5037581;28;20467;-68
2021/04/01 01:57:03;;;;;;;7.43;4.33;;;6.60;99.90;;;;;;5040705;28;20459;-68
2021/04/01 01:59:32;;;;;;;9.97;4.10;;;6.60;99.90;;;;;;5020276;28;20432;-71
2021/04/01 02:01:59;;;;;;;5.60;4.90;;;6.50;99.90;;;;;;5019202;28;20491;-68
2021/04/01 02:04:26;;;;;;;7.80;4.10;;;6.60;99.90;;;;;;5036873;28;20431;-68
2021/04/01 02:06:53;;;;;;;4.97;4.47;;;6.60;99.90;;;;;;5036247;28;20427;-70
2021/04/01 02:09:21;;;;;;;8.57;4.83;;;6.60;99.90;;;;;;5036324;28;20423;-68
2021/04/01 02:11:49;;;;;;;6.47;4.90;;;6.50;99.90;;;;;;5018192;28;20818;-68
2021/04/01 02:14:17;;;;;;;5.63;5.13;;;6.50;99.90;;;;;;5035973;28;20459;-68
2021/04/01 02:16:45;;;;;;;8.30;5.07;;;6.50;99.90;;;;;;5036207;28;20503;-69
2021/04/01 02:19:13;;;;;;;6.10;4.80;;;6.50;99.90;;;;;;5036481;28;20870;-68
2021/04/01 02:21:42;;;;;;;5.57;4.80;;;6.40;99.90;;;;;;5018360;28;20427;-68
2021/04/01 02:24:10;;;;;;;6.70;5.30;;;6.40;99.90;;;;;;5036191;28;20431;-71
2021/04/01 02:26:40;;;;;;;16.73;5.57;;;6.40;99.90;;;;;;5018123;28;20455;-68
2021/04/01 02:29:08;;;;;;;7.10;4.97;;;6.30;99.90;;;;;;5036411;28;20768;-70
2021/04/01 02:31:35;;;;;;;8.13;5.63;;;6.40;99.90;;;;;;5018571;28;20458;-69
2021/04/01 02:34:07;;;;;;;5.70;5.03;;;6.40;99.90;;;;;;5017900;28;20463;-71
2021/04/01 02:36:38;;;;;;;8.10;5.07;;;6.40;99.90;;;;;;5036058;28;20853;-67
2021/04/01 02:39:06;;;;;;;7.40;5.17;;;6.40;99.90;;;;;;5002354;28;20424;-68
2021/04/01 02:41:34;;;;;;;5.63;4.83;;;6.30;99.90;;;;;;5018436;28;20485;-68
2021/04/01 02:44:01;;;;;;;5.77;5.10;;;6.30;99.90;;;;;;5018714;28;20450;-69
2021/04/01 02:46:29;;;;;;;8.10;6.03;;;6.20;99.90;;;;;;5035809;28;20737;-70
2021/04/01 02:48:56;;;;;;;6.20;5.00;;;6.20;99.90;;;;;;5018061;28;20438;-68
2021/04/01 02:51:25;;;;;;;8.87;5.90;;;6.10;99.90;;;;;;5017686;28;20458;-68
2021/04/01 02:53:53;;;;;;;7.93;5.03;;;6.10;99.90;;;;;;5017641;28;20470;-68
2021/04/01 02:56:20;;;;;;;9.00;5.00;;;6.10;99.90;;;;;;5017624;28;20493;-68
2021/04/01 02:58:48;;;;;;;5.70;5.10;;;6.10;99.90;;;;;;5035660;28;20442;-71
2021/04/01 03:01:15;;;;;;;7.97;5.20;;;6.10;99.90;;;;;;5001382;28;20431;-70
2021/04/01 03:03:44;;;;;;;6.43;4.50;;;6.10;99.90;;;;;;5035822;28;20451;-68
2021/04/01 03:06:12;;;;;;;8.40;5.30;;;6.10;99.90;;;;;;5017941;28;20442;-67
2021/04/01 03:08:40;;;;;;;9.53;5.57;;;6.10;99.90;;;;;;5017454;28;20439;-67
2021/04/01 03:11:08;;;;;;;7.03;5.30;;;6.10;99.90;;;;;;5018263;28;20895;-67
2021/04/01 03:13:36;;;;;;;6.50;5.33;;;6.10;99.90;;;;;;5018043;28;20922;-68
2021/04/01 03:16:04;;;;;;;7.73;6.20;;;6.20;99.90;;;;;;5018729;28;20427;-67
2021/04/01 03:18:31;;;;;;;7.63;5.33;;;6.10;99.90;;;;;;5016975;28;20440;-68
2021/04/01 03:20:59;;;;;;;7.90;6.30;;;6.10;99.90;;;;;;5017880;28;20493;-70
2021/04/01 03:23:29;;;;;;;10.13;5.20;;;6.10;99.90;;;;;;5035639;28;20435;-68
2021/04/01 03:25:58;;;;;;;7.50;5.10;;;6.00;99.90;;;;;;5016945;28;20923;-71
2021/04/01 03:28:26;;;;;;;7.10;5.43;;;6.00;99.90;;;;;;5017777;28;20439;-68
2021/04/01 03:31:00;;;;;;;6.57;5.17;;;6.00;99.90;;;;;;5035571;28;20446;-68
2021/04/01 03:33:28;;;;;;;6.57;5.30;;;6.00;99.90;;;;;;5035340;28;20481;-67
2021/04/01 03:35:56;;;;;;;8.20;5.77;;;5.90;99.90;;;;;;5001121;28;20471;-68
2021/04/01 03:38:24;;;;;;;12.57;5.27;;;5.90;99.90;;;;;;5017608;28;20529;-67
2021/04/01 03:40:56;;;;;;;7.67;5.30;;;5.80;99.90;;;;;;5004698;28;20438;-68
2021/04/01 03:43:28;;;;;;;9.23;5.23;;;5.80;99.90;;;;;;5039182;28;20529;-68
2021/04/01 03:45:56;;;;;;;7.80;5.17;;;5.80;99.90;;;;;;5034807;28;20438;-68
2021/04/01 03:48:25;;;;;;;7.23;5.80;;;5.80;99.90;;;;;;5017710;28;20459;-68
2021/04/01 03:53:46;;;;;;;8.93;6.00;;;5.80;99.90;;;;;;5017398;28;20465;-68
2021/04/01 03:56:13;;;;;;;6.70;5.87;;;5.90;99.90;;;;;;5001071;28;20953;-68
2021/04/01 03:58:53;;;;;;;12.37;5.17;;;5.90;99.90;;;;;;5017324;28;20627;-69
2021/04/01 04:04:12;;;;;;;11.73;5.77;;;5.80;99.90;;;;;;5002119;28;20431;-69
2021/04/01 04:07:00;;;;;;;12.03;6.70;;;5.80;99.90;;;;;;5034688;28;20445;-68
2021/04/01 04:09:43;;;;;;;7.90;5.70;;;5.80;99.90;;;;;;5034937;28;20435;-69
2021/04/01 04:12:19;;;;;;;8.33;6.33;;;5.80;99.90;;;;;;5016360;28;20538;-69
2021/04/01 04:14:51;;;;;;;11.50;8.83;;;5.80;99.90;;;;;;5016323;28;20463;-70
2021/04/01 04:20:11;;;;;;;11.70;6.03;;;5.80;99.90;;;;;;5034933;28;20435;-70
2021/04/01 04:22:39;;;;;;;10.23;5.40;;;5.80;99.90;;;;;;5020855;28;20962;-67
2021/04/01 04:25:11;;;;;;;6.80;5.20;;;5.70;99.90;;;;;;5038765;28;20977;-67
2021/04/01 04:27:53;;;;;;;9.03;5.20;;;5.70;99.90;;;;;;5003930;28;21045;-68
2021/04/01 04:30:23;;;;;;;10.37;6.87;;;5.70;99.90;;;;;;5038568;28;20448;-68
2021/04/01 04:32:51;;;;;;;8.30;6.30;;;5.70;99.90;;;;;;5020728;28;20526;-71
2021/04/01 04:35:18;;;;;;;8.13;5.90;;;5.70;99.90;;;;;;5020175;28;20463;-71
2021/04/01 04:37:46;;;;;;;10.00;5.50;;;5.70;99.90;;;;;;5038379;28;20841;-71
2021/04/01 04:40:14;;;;;;;11.30;6.70;;;5.70;99.90;;;;;;5020762;28;20554;-71
2021/04/01 04:42:43;;;;;;;14.40;6.17;;;5.70;99.90;;;;;;5038294;28;20493;-68
2021/04/01 04:45:11;;;;;;;8.80;6.13;;;5.60;99.90;;;;;;5020690;28;20435;-68
2021/04/01 04:47:39;;;;;;;9.37;6.50;;;5.60;99.90;;;;;;5039156;28;20435;-68
2021/04/01 04:50:07;;;;;;;8.93;6.60;;;5.70;99.90;;;;;;5038827;28;20755;-68
2021/04/01 04:52:36;;;;;;;8.80;6.20;;;5.70;99.90;;;;;;5020425;28;20506;-68
2021/04/01 04:55:08;;;;;;;9.90;5.80;;;5.60;99.90;;;;;;5020470;28;20565;-68
2021/04/01 04:57:45;;;;;;;8.13;5.73;;;5.60;99.90;;;;;;5020145;28;20579;-68
2021/04/01 05:00:38;;;;;;;9.83;5.57;;;5.50;99.90;;;;;;5020520;28;20500;-67
2021/04/01 05:06:52;;;;;;;9.67;6.23;;;5.50;99.90;;;;;;5037284;28;20439;-67
2021/04/01 05:09:20;;;;;;;9.60;5.40;;;5.60;99.90;;;;;;5038273;28;20438;-67
2021/04/01 05:11:47;;;;;;;9.77;5.90;;;5.70;99.90;;;;;;5020543;28;20751;-68
2021/04/01 05:14:15;;;;;;;9.17;6.13;;;5.70;99.90;;;;;;5020446;28;20534;-69
2021/04/01 05:16:42;;;;;;;6.50;5.03;;;5.80;99.90;;;;;;5040684;28;20435;-68
2021/04/01 05:19:11;;;;;;;13.00;6.80;;;5.80;99.90;;;;;;5028980;28;20439;-68
2021/04/01 05:21:46;;;;;;;10.67;7.20;;;5.90;99.90;;;;;;5043984;28;20491;-68
2021/04/01 05:24:15;;;;;;;12.73;6.37;;;5.90;99.90;;;;;;5044231;28;20431;-68
2021/04/01 05:29:39;;;;;;;22.07;8.30;;;6.10;99.90;;;;;;4996964;28;20432;-68
2021/04/01 05:32:07;;;;;;;12.00;6.83;;;6.20;99.90;;;;;;5019289;28;20497;-68
2021/04/01 05:34:37;;;;;;;22.83;8.70;;;6.20;99.90;;;;;;5019223;28;20473;-69
2021/04/01 05:37:31;;;;;;;11.37;8.17;;;6.40;99.90;;;;;;5019352;28;20497;-68
2021/04/01 05:39:59;;;;;;;15.43;7.17;;;6.70;99.90;;;;;;5037275;28;20436;-68
2021/04/01 05:42:34;;;;;;;15.17;6.93;;;7.00;99.90;;;;;;5018925;28;20435;-68
2021/04/01 05:45:05;;;;;;;8.00;6.10;;;7.30;99.90;;;;;;5019377;28;20481;-68
2021/04/01 05:47:37;;;;;;;10.50;6.30;;;7.60;99.90;;;;;;5002481;28;20535;-68
2021/04/01 05:50:17;;;;;;;13.33;6.43;;;8.10;99.90;;;;;;5018677;28;20502;-69
2021/04/01 05:58:30;;;;;;;12.70;6.40;;;9.90;99.90;;;;;;5019094;28;20438;-68
2021/04/01 06:03:59;;;;;;;13.70;7.03;;;10.90;99.90;;;;;;5019068;28;20434;-69
2021/04/01 06:06:31;;;;;;;16.33;6.70;;;11.60;99.00;;;;;;5019048;28;20439;-71
2021/04/01 06:09:05;;;;;;;11.53;7.20;;;11.90;98.40;;;;;;5036688;28;20969;-69
2021/04/01 06:11:58;;;;;;;8.60;6.03;;;12.10;97.90;;;;;;5036409;28;20470;-69
2021/04/01 06:14:58;;;;;;;13.73;7.47;;;12.40;97.40;;;;;;5018477;28;20476;-69
2021/04/01 06:17:29;;;;;;;10.43;6.50;;;13.20;96.20;;;;;;5022045;28;20940;-68
2021/04/01 06:19:58;;;;;;;10.93;6.90;;;13.20;93.80;;;;;;5018493;28;20420;-69
2021/04/01 06:22:29;;;;;;;10.70;7.20;;;13.80;93.90;;;;;;5035889;28;20434;-69
2021/04/01 06:24:57;;;;;;;12.37;7.03;;;14.30;92.20;;;;;;5017843;28;20433;-69
2021/04/01 06:27:33;;;;;;;7.87;6.53;;;14.60;91.90;;;;;;5035904;28;20431;-70
2021/04/01 06:30:13;;;;;;;8.63;6.50;;;14.90;90.50;;;;;;5017391;28;20524;-69
2021/04/01 06:32:56;;;;;;;12.53;7.70;;;15.00;89.30;;;;;;5035271;28;20428;-70
2021/04/01 06:35:26;;;;;;;9.13;6.47;;;15.60;86.50;;;;;;5035205;28;20533;-70
2021/04/01 06:38:23;;;;;;;12.90;6.57;;;16.20;84.40;;;;;;5017383;28;20472;-70
2021/04/01 06:40:54;;;;;;;15.77;6.97;;;16.80;82.30;;;;;;5017038;28;20535;-70
2021/04/01 06:43:42;;;;;;;11.50;8.23;;;17.00;79.70;;;;;;5033846;28;20437;-70
2021/04/01 06:46:10;;;;;;;14.23;7.90;;;17.20;78.10;;;;;;5017286;28;20548;-69
2021/04/01 06:51:28;;;;;;;15.60;7.20;;;17.90;75.70;;;;;;5003995;28;20443;-69
2021/04/01 06:54:06;;;;;;;14.40;8.10;;;18.10;74.70;;;;;;5000932;28;20448;-69
2021/04/01 06:56:59;;;;;;;14.93;7.97;;;18.20;72.30;;;;;;5035612;28;20440;-70
2021/04/01 06:59:40;;;;;;;16.30;8.83;;;18.00;69.90;;;;;;5017590;28;20431;-71
2021/04/01 07:02:24;;;;;;;14.83;8.77;;;18.40;69.50;;;;;;5000592;28;20523;-71
2021/04/01 07:04:58;;;;;;;10.33;6.60;;;18.70;68.40;;;;;;5035383;28;20431;-70
2021/04/01 07:07:28;;;;;;;18.87;9.90;;;19.50;66.90;;;;;;5035230;28;20431;-70
2021/04/01 07:10:12;;;;;;;28.17;19.10;;;20.20;63.00;;;;;;5017568;28;20431;-70
2021/04/01 07:12:45;;;;;;;18.27;11.40;;;21.30;61.30;;;;;;5002198;28;20490;-72
2021/04/01 07:15:18;;;;;;;14.03;10.80;;;20.60;60.30;;;;;;5035803;28;20462;-70
2021/04/01 07:17:51;;;;;;;14.80;8.23;;;20.80;60.60;;;;;;5035746;28;20455;-69
2021/04/01 07:23:30;;;;;;;14.07;9.10;;;22.10;56.00;;;;;;5030680;28;20961;-70
2021/04/01 07:32:39;;;;;;;17.20;9.40;;;21.50;55.80;;;;;;5034163;28;20444;-70
2021/04/01 07:35:51;;;;;;;17.83;9.63;;;21.40;54.80;;;;;;5035131;28;20513;-70
2021/04/01 07:46:50;;;;;;;15.77;9.90;;;22.20;52.40;;;;;;5034653;28;20447;-71
2021/04/01 07:49:22;;;;;;;16.03;10.90;;;23.20;53.30;;;;;;5033809;28;20926;-71
2021/04/01 07:52:00;;;;;;;16.40;9.00;;;24.40;50.40;;;;;;5016099;28;20459;-70
2021/04/01 07:54:42;;;;;;;14.33;10.13;;;24.00;48.80;;;;;;5017803;28;20500;-71
2021/04/01 07:57:50;;;;;;;16.73;10.00;;;24.50;49.20;;;;;;5038185;28;20435;-69
2021/04/01 08:00:21;;;;;;;18.50;9.83;;;25.10;46.80;;;;;;5037306;28;20466;-74
2021/04/01 08:02:53;;;;;;;15.10;10.37;;;25.90;46.30;;;;;;5036871;28;20490;-71
2021/04/01 08:05:25;;;;;;;21.20;10.57;;;28.00;41.90;;;;;;5036571;28;20441;-71
2021/04/01 08:07:57;;;;;;;24.07;10.70;;;29.80;38.20;;;;;;5018957;28;20961;-70
2021/04/01 08:10:31;;;;;;;25.67;21.17;;;28.70;37.80;;;;;;5036609;28;20427;-72
2021/04/01 08:13:03;;;;;;;17.47;10.77;;;28.20;38.20;;;;;;5018736;28;20431;-71
2021/04/01 08:15:37;;;;;;;22.13;15.40;;;27.70;39.20;;;;;;5036442;28;20977;-71
2021/04/01 08:18:13;;;;;;;19.13;11.77;;;27.20;39.70;;;;;;5036148;28;20899;-71
2021/04/01 08:20:43;;;;;;;16.73;10.73;;;26.80;40.00;;;;;;5018371;28;20469;-72
2021/04/01 08:23:31;;;;;;;21.33;10.67;;;26.40;41.10;;;;;;5018273;28;20443;-70
2021/04/01 08:26:26;;;;;;;19.53;11.57;;;24.50;41.90;;;;;;5036128;28;20455;-72
2021/04/01 08:30:18;;;;;;;15.27;10.53;;;24.30;44.10;;;;;;5002325;28;20435;-74
2021/04/01 08:35:58;;;;;;;19.57;10.90;;;25.70;43.40;;;;;;5035853;28;20467;-72
2021/04/01 08:38:47;;;;;;;14.80;11.87;;;27.80;38.90;;;;;;5018022;28;20569;-71
2021/04/01 08:41:54;;;;;;;16.83;11.73;;;28.60;39.00;;;;;;5017678;28;20427;-70
2021/04/01 08:45:31;;;;;;;17.33;11.43;;;29.50;36.90;;;;;;5035735;28;20505;-69
2021/04/01 08:48:37;;;;;;;20.00;10.50;;;28.50;35.30;;;;;;4939978;28;20450;-72
2021/04/01 08:55:28;;;;;;;19.40;12.60;;;28.50;36.30;;;;;;4919828;29;20479;-70
2021/04/01 08:58:03;;;;;;;19.30;13.33;;;27.70;37.20;;;;;;4920411;28;20431;-72
2021/04/01 09:00:33;;;;;;;15.80;11.03;;;26.90;38.70;;;;;;4939221;28;20442;-71
2021/04/01 09:03:03;;;;;;;20.53;11.93;;;26.90;40.90;;;;;;4955027;29;20521;-69
2021/04/01 09:05:31;;;;;;;17.37;11.60;;;26.80;40.70;;;;;;4955167;29;20451;-72
2021/04/01 09:08:05;;;;;;;14.60;10.50;;;26.00;42.00;;;;;;4954959;28;20908;-71
2021/04/01 09:10:35;;;;;;;15.10;10.07;;;27.30;40.40;;;;;;4954818;29;20443;-72
2021/04/01 09:13:08;;;;;;;16.77;10.80;;;27.90;38.90;;;;;;4938811;29;20443;-71
2021/04/01 09:15:45;;;;;;;21.00;11.23;;;26.80;40.40;;;;;;4953778;28;20476;-70
2021/04/01 09:18:20;;;;;;;16.33;9.67;;;25.30;42.80;;;;;;4939106;29;20497;-70
2021/04/01 09:20:52;;;;;;;18.10;10.73;;;25.40;42.90;;;;;;4939163;29;20451;-71
2021/04/01 09:23:35;;;;;;;19.33;11.47;;;24.70;44.00;;;;;;4923406;29;20523;-72
2021/04/01 09:26:04;;;;;;;15.80;10.83;;;24.70;44.90;;;;;;4939055;29;20470;-70
2021/04/01 09:28:35;;;;;;;19.40;12.43;;;24.60;44.70;;;;;;4955091;29;20431;-73
2021/04/01 09:31:06;;;;;;;19.80;11.80;;;24.70;43.70;;;;;;4974782;28;20943;-73
2021/04/01 09:33:42;;;;;;;19.23;12.13;;;24.90;43.90;;;;;;4997876;28;20463;-71
2021/04/01 09:36:13;;;;;;;20.60;12.37;;;25.60;44.30;;;;;;5015271;28;20543;-73
2021/04/01 09:38:43;;;;;;;20.70;12.10;;;26.50;42.00;;;;;;5015876;28;20476;-71
2021/04/01 09:41:26;;;;;;;19.77;12.13;;;27.50;39.80;;;;;;5015014;28;20432;-71
2021/04/01 09:43:53;;;;;;;30.83;16.40;;;26.30;40.90;;;;;;5015314;28;20431;-71
2021/04/01 09:46:23;;;;;;;38.67;22.80;;;27.20;40.70;;;;;;5013924;28;20507;-71
2021/04/01 09:48:59;;;;;;;24.33;12.00;;;27.60;39.40;;;;;;5015393;28;20857;-71
2021/04/01 09:51:31;;;;;;;21.03;11.83;;;26.50;40.60;;;;;;4998204;28;20439;-71
2021/04/01 09:53:59;;;;;;;21.57;13.33;;;25.80;42.50;;;;;;5007423;28;20475;-71
2021/04/01 09:56:28;;;;;;;17.10;12.83;;;25.60;43.40;;;;;;5034797;28;20493;-71
2021/04/01 09:58:57;;;;;;;19.10;12.10;;;27.10;42.50;;;;;;5035628;28;20466;-73
2021/04/01 10:01:28;;;;;;;17.93;11.43;;;28.10;39.70;;;;;;5034086;28;20467;-71
2021/04/01 10:04:11;;;;;;;20.07;13.80;;;28.30;39.70;;;;;;5035009;28;20569;-71
2021/04/01 10:06:42;;;;;;;20.87;13.03;;;28.60;39.30;;;;;;5034974;28;20449;-71
2021/04/01 10:09:14;;;;;;;19.43;13.27;;;28.90;38.30;;;;;;5034229;28;20432;-71
2021/04/01 10:11:46;;;;;;;22.23;13.43;;;27.90;37.60;;;;;;5034279;28;20443;-72
2021/04/01 10:14:17;;;;;;;21.33;13.60;;;26.50;40.50;;;;;;5034272;28;20443;-69
2021/04/01 10:16:55;;;;;;;17.77;11.90;;;25.20;43.30;;;;;;5015558;28;20833;-70
2021/04/01 10:19:26;;;;;;;19.77;12.60;;;24.80;44.00;;;;;;5033463;28;20431;-70
2021/04/01 10:25:13;;;;;;;19.37;13.90;;;27.20;40.70;;;;;;5034040;28;20945;-70
2021/04/01 10:27:49;;;;;;;19.20;13.67;;;28.00;39.20;;;;;;5034130;28;20440;-70
2021/04/01 10:30:18;;;;;;;22.20;14.60;;;28.80;37.40;;;;;;5015273;28;20438;-71
2021/04/01 10:32:53;;;;;;;22.00;14.70;;;30.70;36.60;;;;;;5033931;28;20438;-71
2021/04/01 10:35:24;;;;;;;19.70;13.30;;;30.90;33.60;;;;;;5034066;28;20520;-71
2021/04/01 10:37:57;;;;;;;18.83;14.00;;;32.40;34.10;;;;;;5034284;28;20504;-70
2021/04/01 10:40:26;;;;;;;19.20;14.43;;;33.00;32.20;;;;;;5016295;28;20442;-70
2021/04/01 10:43:04;;;;;;;22.73;15.63;;;29.70;35.10;;;;;;5034806;28;20423;-70
2021/04/01 10:45:35;;;;;;;25.80;16.10;;;28.30;37.20;;;;;;5015540;28;20442;-71
2021/04/01 10:48:21;;;;;;;30.40;15.00;;;27.70;38.40;;;;;;4999795;28;20423;-70
2021/04/01 10:50:51;;;;;;;20.00;14.87;;;26.70;39.80;;;;;;5016606;28;20743;-70
2021/04/01 10:53:20;;;;;;;28.50;14.87;;;26.90;40.60;;;;;;5033742;28;20908;-70
2021/04/01 10:55:49;;;;;;;17.60;14.57;;;27.20;40.10;;;;;;5015977;28;20989;-71
2021/04/01 10:58:18;;;;;;;18.47;15.40;;;27.40;38.80;;;;;;5016364;28;20427;-69
2021/04/01 11:00:52;;;;;;;17.67;13.63;;;28.70;38.60;;;;;;5032492;28;20469;-72
2021/04/01 11:03:26;;;;;;;17.47;14.17;;;31.70;35.10;;;;;;5033754;28;20975;-72
2021/04/01 11:05:55;;;;;;;17.23;14.30;;;29.70;33.20;;;;;;5015477;28;20525;-70
2021/04/01 11:08:24;;;;;;;21.17;13.93;;;29.20;36.50;;;;;;5033580;28;20426;-72
2021/04/01 11:11:01;;;;;;;25.63;14.83;;;29.40;36.80;;;;;;5033455;28;20442;-71
2021/04/01 11:13:33;;;;;;;21.10;14.90;;;27.80;39.00;;;;;;5015745;28;20473;-71
2021/04/01 11:16:04;;;;;;;19.63;14.27;;;27.10;39.50;;;;;;5032445;28;20486;-71
2021/04/01 11:18:35;;;;;;;24.90;14.57;;;26.60;41.00;;;;;;5015864;28;20424;-70
2021/04/01 11:21:06;;;;;;;22.63;14.77;;;26.20;41.40;;;;;;5015963;28;20979;-72
2021/04/01 11:23:35;;;;;;;22.13;14.17;;;25.10;43.00;;;;;;4999367;28;20767;-71
2021/04/01 11:26:04;;;;;;;23.17;13.07;;;24.80;44.10;;;;;;5015972;28;20435;-71
2021/04/01 11:28:39;;;;;;;23.00;14.10;;;25.30;43.80;;;;;;5015996;28;20429;-72
2021/04/01 11:31:08;;;;;;;22.07;13.50;;;27.10;41.30;;;;;;5032326;28;20475;-72
2021/04/01 11:33:38;;;;;;;17.37;13.40;;;27.10;39.30;;;;;;5033266;28;20784;-71
2021/04/01 11:36:13;;;;;;;18.57;12.53;;;28.30;39.70;;;;;;5033374;28;20510;-70
2021/04/01 11:38:44;;;;;;;24.80;15.00;;;28.20;38.30;;;;;;5034300;28;20439;-70
2021/04/01 11:41:13;;;;;;;18.60;15.00;;;26.70;39.40;;;;;;5015293;28;20447;-70
2021/04/01 11:43:41;;;;;;;19.47;13.13;;;26.20;40.60;;;;;;5015406;28;20431;-71
2021/04/01 11:46:18;;;;;;;17.07;12.57;;;27.50;40.00;;;;;;5014368;28;21006;-71
2021/04/01 11:51:40;;;;;;;16.03;12.90;;;29.80;35.10;;;;;;5015182;28;20442;-73
2021/04/01 11:54:11;;;;;;;17.07;12.20;;;28.00;36.80;;;;;;4998883;28;20475;-71
2021/04/01 11:56:41;;;;;;;17.90;13.03;;;27.80;37.10;;;;;;5033537;28;20478;-71
2021/04/01 11:59:09;;;;;;;17.73;14.00;;;26.80;38.90;;;;;;5015714;28;20783;-71
2021/04/01 12:01:48;;;;;;;19.53;12.50;;;25.70;40.30;;;;;;5014376;28;21001;-71
2021/04/01 12:04:19;;;;;;;14.40;11.83;;;25.00;42.50;;;;;;5015008;28;20427;-72
2021/04/01 12:06:48;;;;;;;15.10;11.27;;;25.10;43.00;;;;;;5032611;28;20459;-70
2021/04/01 12:09:16;;;;;;;14.80;11.87;;;25.20;42.30;;;;;;4999144;28;20542;-72
2021/04/01 12:11:46;;;;;;;16.80;12.50;;;25.40;42.80;;;;;;5033442;28;20438;-74
2021/04/01 12:14:16;;;;;;;16.40;12.20;;;25.80;41.90;;;;;;5032636;28;20439;-71
2021/04/01 12:16:44;;;;;;;17.70;13.50;;;26.80;40.50;;;;;;5031459;28;20481;-71
2021/04/01 12:19:12;;;;;;;36.43;25.33;;;25.30;41.00;;;;;;5016106;28;20439;-71
2021/04/01 12:21:43;;;;;;;22.07;13.80;;;24.60;43.80;;;;;;4999097;28;20676;-71
2021/04/01 12:24:11;;;;;;;18.17;13.73;;;24.20;44.70;;;;;;5015762;28;20530;-71
2021/04/01 12:26:44;;;;;;;18.63;13.50;;;25.00;44.30;;;;;;5015589;28;21002;-72
2021/04/01 12:29:13;;;;;;;22.43;13.60;;;24.30;44.60;;;;;;5016020;28;20490;-71
2021/04/01 12:31:45;;;;;;;16.97;12.33;;;24.90;45.20;;;;;;5034004;28;20487;-72
2021/04/01 12:34:23;;;;;;;20.27;13.30;;;24.70;44.50;;;;;;5033422;28;20450;-71
2021/04/01 12:36:52;;;;;;;16.20;12.87;;;24.70;43.90;;;;;;5015579;28;20502;-71
2021/04/01 12:39:29;;;;;;;22.73;13.47;;;24.60;44.00;;;;;;5015566;28;20423;-71
2021/04/01 12:41:57;;;;;;;18.10;12.17;;;24.40;44.30;;;;;;5016689;28;20441;-73
2021/04/01 12:44:34;;;;;;;19.97;12.77;;;24.90;44.40;;;;;;5036995;28;21022;-72
2021/04/01 12:47:02;;;;;;;15.40;11.80;;;25.00;43.80;;;;;;5017500;28;20821;-71
2021/04/01 12:49:35;;;;;;;19.57;13.53;;;24.80;43.50;;;;;;5037824;28;20481;-72
2021/04/01 12:52:06;;;;;;;20.80;13.37;;;24.30;43.90;;;;;;5019431;28;20436;-71
2021/04/01 12:54:38;;;;;;;18.77;12.50;;;24.00;44.30;;;;;;5037033;28;20486;-70
2021/04/01 12:57:11;;;;;;;18.83;12.87;;;24.00;45.20;;;;;;5019096;28;20495;-71
2021/04/01 12:59:42;;;;;;;17.13;11.07;;;24.40;45.00;;;;;;5036797;28;20446;-71
2021/04/01 13:02:12;;;;;;;16.57;11.63;;;24.20;43.90;;;;;;5018375;28;20467;-71
2021/04/01 13:04:42;;;;;;;18.00;12.80;;;24.20;44.30;;;;;;5019224;28;20527;-71
2021/04/01 13:07:22;;;;;;;18.50;11.17;;;24.10;44.70;;;;;;5018927;28;20542;-70
2021/04/01 13:09:52;;;;;;;18.50;12.50;;;24.30;45.20;;;;;;5036180;28;20430;-72
2021/04/01 13:12:22;;;;;;;14.40;11.40;;;24.60;44.80;;;;;;5036559;28;20489;-70
2021/04/01 13:14:50;;;;;;;20.97;12.53;;;25.10;45.10;;;;;;5018214;28;20502;-71
2021/04/01 13:20:14;;;;;;;17.30;10.40;;;24.70;45.00;;;;;;5036256;28;20526;-70
2021/04/01 13:22:56;;;;;;;13.33;9.80;;;25.30;42.90;;;;;;5036192;28;20438;-70
2021/04/01 13:25:25;;;;;;;13.10;8.80;;;25.70;40.90;;;;;;5017743;28;20459;-70
2021/04/01 13:28:00;;;;;;;17.07;9.33;;;26.30;39.80;;;;;;5035788;28;20444;-70
2021/04/01 13:30:30;;;;;;;17.83;11.33;;;26.80;39.90;;;;;;5034545;28;20445;-69
2021/04/01 13:33:04;;;;;;;16.37;10.90;;;25.60;40.60;;;;;;5035050;28;20447;-70
2021/04/01 13:35:38;;;;;;;10.47;7.70;;;25.70;42.20;;;;;;5001018;28;20493;-72
2021/04/01 13:38:10;;;;;;;11.63;7.73;;;26.10;38.30;;;;;;5017273;28;20454;-70
2021/04/01 13:40:42;;;;;;;11.37;7.97;;;25.20;39.10;;;;;;5035634;28;20428;-70
2021/04/01 13:43:11;;;;;;;11.30;7.67;;;26.30;38.20;;;;;;5034833;28;20556;-72
2021/04/01 13:45:40;;;;;;;12.10;8.57;;;26.90;37.70;;;;;;4999932;28;20553;-72
2021/04/01 13:48:13;;;;;;;11.13;7.90;;;26.80;37.30;;;;;;5001559;28;20443;-71
2021/04/01 13:50:48;;;;;;;12.23;7.80;;;26.70;37.50;;;;;;5017389;28;20467;-71
2021/04/01 13:53:53;;;;;;;12.10;10.43;;;25.40;38.50;;;;;;5033434;28;20817;-71
2021/04/01 13:56:30;;;;;;;12.60;9.07;;;25.30;39.70;;;;;;5002022;28;20494;-70
2021/04/01 13:59:22;;;;;;;15.33;8.63;;;24.40;38.90;;;;;;5017455;28;20435;-73
2021/04/01 14:10:26;;;;;;;15.57;9.03;;;25.40;39.30;;;;;;5000744;28;20506;-70
2021/04/01 14:12:55;;;;;;;11.60;8.97;;;26.20;38.50;;;;;;5000150;28;20531;-70
2021/04/01 14:15:27;;;;;;;15.50;9.83;;;27.00;37.40;;;;;;5032206;28;20450;-70
2021/04/01 14:18:00;;;;;;;20.00;12.70;;;28.10;35.80;;;;;;5018363;28;20432;-70